• Join FlightAware (Why Join?)
  • Login
  • US Flag GB Flag 
23:00 EDT


 

Airport Tracker/Info


-or-


 

Live Flight TrackerFlight Track Log ✈ EJA922 ✈ 27-Jun-2013 ✈ KSTC - KBWI

Flight Track Log - Related Links

Times and Time Zones

All times are in EDT time to prevent confusion due to time zone crossing. See the EJA922 flight status page for this flight to view local times or setup timezone preferences in your user account.

Time Position Orientation Groundspeed Altitude Reporting Facility
EDT Latitude Longitude Course Direction KTS MPH feet Rate Location/Type
13:55 45.6003 -94.0556 120° Southeast 241 277 3,800  Level Minneapolis Center
13:56 45.5764 -93.9619 110° East 264 304 6,500 2,100 Climbing Minneapolis Center
13:57 45.5319 -93.8667 124° Southeast 293 337 8,200 1,800 Climbing Minneapolis Center
13:58 45.1344 -93.1252 121° Southeast  Level FlightAware Approximate
13:58 45.4814 -93.7578 123° Southeast 328 377 10,300  Level Minneapolis Center
13:59 45.0584 -92.9800 120° Southeast  Level FlightAware Approximate
13:59 45.4264 -93.6328 122° Southeast 373 429 11,400  Level Minneapolis Center
14:00 44.9933 -92.8239 120° Southeast  Level FlightAware Approximate
14:00 45.3650 -93.4967 123° Southeast 407 468 12,900  Level Minneapolis Center
14:01 45.2875 -93.3264 123° Southeast 426 490 14,900 1,560 Climbing Minneapolis Center
14:02 45.2208 -93.1803 123° Southeast 438 504 16,200 1,200 Climbing Minneapolis Center
14:03 45.1508 -93.0289 123° Southeast 453 521 17,500 1,320 Climbing Minneapolis Center
14:04 45.0781 -92.8753 124° Southeast 465 535 19,000 1,260 Climbing Minneapolis Center
14:05 45.0047 -92.7192 124° Southeast 472 543 20,200 1,200 Climbing Minneapolis Center
14:06 44.9303 -92.5592 123° Southeast 481 554 21,600 1,200 Climbing Minneapolis Center
14:07 44.8542 -92.3986 124° Southeast 490 564 22,700 1,440 Climbing Minneapolis Center
14:08 44.7628 -92.2067 124° Southeast 491 565 24,600 1,680 Climbing Minneapolis Center
14:09 44.6872 -92.0478 124° Southeast 490 564 26,200 1,380 Climbing Minneapolis Center
14:10 44.6186 -91.8839 120° Southeast 488 562 27,500 1,080 Climbing Minneapolis Center
14:11 44.5594 -91.7044 115° Southeast 504 580 28,500 840 Climbing Minneapolis Center
14:12 44.4964 -91.5203 116° Southeast 519 597 29,300 780 Climbing Minneapolis Center
14:13 44.4178 -91.2925 116° Southeast 536 617 30,200 780 Climbing Minneapolis Center
14:15 44.3500 -91.0969 116° Southeast 554 638 31,000 720 Climbing Minneapolis Center
14:16 44.2894 -90.9267 116° Southeast 563 648 31,700 960 Climbing Minneapolis Center
14:17 44.2064 -90.6886 116° Southeast 572 658 33,100 1,260 Climbing Minneapolis Center
14:18 44.1319 -90.4814 117° Southeast 569 655 34,400 1,080 Climbing Minneapolis Center
14:18 44.0936 -90.3747 117° Southeast 572 658 35,000 1,200 Climbing Chicago Center
14:19 44.0131 -90.1528 117° Southeast 570 656 36,500 1,200 Climbing Chicago Center
14:21 43.9172 -89.8889 117° Southeast 572 658 37,900 960 Climbing Minneapolis Center
14:21 43.8689 -89.7572 117° Southeast 574 661 38,600 600 Climbing Chicago Center
14:22 43.7825 -89.5253 117° Southeast 581 669 39,000 180 Climbing Chicago Center
14:24 43.7069 -89.3231 117° Southeast 588 677 39,000 180 Level Chicago Center
14:25 43.6314 -89.1200 117° Southeast 593 682 39,400 540 Climbing Chicago Center
14:26 43.5558 -88.9194 117° Southeast 591 680 40,200 720 Climbing Chicago Center
14:27 43.4831 -88.7281 118° Southeast 572 658 40,900 360 Climbing Chicago Center
14:28 43.4039 -88.5233 118° Southeast 569 655 41,000  Climbing Chicago Center
14:29 43.3278 -88.3256 118° Southeast 570 656 41,000  Level Chicago Center
14:30 43.2553 -88.1375 118° Southeast 563 648 41,000  Level Chicago Center
14:31 43.1697 -87.9167 118° Southeast 563 648 41,000  Level Chicago Center
14:32 43.0958 -87.7289 118° Southeast 560 644 41,000  Level Chicago Center
14:33 43.0217 -87.5433 119° Southeast 557 641 41,000  Level Chicago Center
14:34 42.9464 -87.3550 119° Southeast 550 633 41,000  Level Chicago Center
14:35 42.8733 -87.1722 119° Southeast 551 634 41,000  Level Chicago Center
14:36 42.8006 -86.9936 119° Southeast 545 627 41,000  Level Chicago Center
14:37 42.7272 -86.8150 119° Southeast 544 626 41,000  Level Chicago Center
14:38 42.6392 -86.5997 119° Southeast 547 629 41,000  Level Chicago Center
14:39 42.5650 -86.4239 120° Southeast 543 625 41,000  Level Chicago Center
14:40 42.4911 -86.2456 119° Southeast 546 628 41,000  Level Chicago Center
14:41 42.4172 -86.0686 119° Southeast 546 628 41,000  Level Chicago Center
14:42 42.3425 -85.8919 120° Southeast 546 628 41,000  Level Chicago Center
14:43 42.2536 -85.6789 119° Southeast 545 627 41,000  Level Chicago Center
14:44 42.1767 -85.5028 120° Southeast 547 629 41,000  Level Chicago Center
14:45 42.1017 -85.3256 120° Southeast 547 629 41,000  Level Chicago Center
14:46 42.0289 -85.1483 119° Southeast 546 628 41,000  Level Chicago Center
14:47 41.9422 -84.9492 120° Southeast 540 621 41,000  Level Chicago Center
14:48 41.8642 -84.7703 120° Southeast 550 633 41,000  Level Chicago Center
14:49 41.7872 -84.5969 121° Southeast 542 624 41,000  Level Chicago Center
14:50 41.7114 -84.4242 120° Southeast 538 619 41,000  Level Chicago Center
14:51 41.6347 -84.2519 121° Southeast 538 619 41,000  Level Chicago Center
14:52 41.5522 -84.0739 122° Southeast 541 623 41,000  Level Cleveland Center
14:54 41.4661 -83.8769 120° Southeast 536 617 41,000  Level Chicago Center
14:54 41.3975 -83.7333 122° Southeast 541 623 41,000  Level Cleveland Center
14:55 41.3228 -83.5667 121° Southeast 541 623 41,000  Level Cleveland Center
14:56 41.2328 -83.4161 128° Southeast 535 616 41,000  Level Cleveland Center
14:57 41.1081 -83.3114 148° Southeast 519 597 41,000  Level Cleveland Center
14:58 40.9872 -83.2156 149° Southeast 519 597 41,000  Level Cleveland Center
15:00 40.7725 -83.0533 150° Southeast 528 608 41,000  Level Indianapolis Center
15:01 40.6233 -82.9406 150° Southeast 526 605 41,000  Level Indianapolis Center
15:02 40.4925 -82.8436 151° Southeast 529 609 41,000  Level Indianapolis Center
15:03 40.3669 -82.7494 150° Southeast 527 606 41,000  Level Indianapolis Center
15:04 40.2344 -82.6519 151° Southeast 525 604 41,000 -60 Level Indianapolis Center
15:05 40.1039 -82.5575 151° Southeast 527 606 40,900  Descending Indianapolis Center
15:06 39.9814 -82.4500 146° Southeast 525 604 41,000  Climbing Indianapolis Center
15:07 39.8617 -82.3367 144° Southeast 525 604 41,000  Level Indianapolis Center
15:08 39.7428 -82.2231 144° Southeast 524 603 41,000  Level Indianapolis Center
15:09 39.6200 -82.1069 144° Southeast 521 600 41,000  Level Indianapolis Center
15:10 39.5081 -82.0031 144° Southeast 498 573 41,000  Level Indianapolis Center
15:12 39.4006 -81.9000 143° Southeast 479 551 41,000  Level Indianapolis Center
15:13 39.2731 -81.7831 145° Southeast 464 534 41,000  Level Indianapolis Center
15:14 39.1706 -81.6864 144° Southeast 457 526 41,000  Level Indianapolis Center
15:15 39.0675 -81.5908 144° Southeast 454 522 41,000  Level Indianapolis Center
15:16 38.9650 -81.4947 144° Southeast 452 520 41,000  Level Indianapolis Center
15:17 38.8603 -81.3989 145° Southeast 453 521 41,000  Level Indianapolis Center
15:18 38.7547 -81.3014 144° Southeast 456 525 41,000  Level Indianapolis Center
15:19 38.6497 -81.2078 145° Southeast 453 521 41,000  Level Indianapolis Center
15:20 38.5464 -81.1139 145° Southeast 451 519 41,000  Level Indianapolis Center
15:21 38.4444 -81.0231 145° Southeast 445 512 41,000  Level Indianapolis Center
15:22 38.3233 -80.9128 144° Southeast 444 511 41,000  Level Indianapolis Center
15:23 38.2225 -80.8208 144° Southeast 445 512 41,000  Level Indianapolis Center
15:24 38.1658 -80.6747 116° Southeast 470 541 41,000  Level Indianapolis Center
15:25 38.1319 -80.5142 105° East 477 549 41,000 -240 Level Indianapolis Center
15:26 38.0961 -80.3436 105° East 495 570 40,600 -480 Descending Indianapolis Center
15:27 38.0519 -80.1303 105° East 506 582 40,000 -300 Descending Washington Center
15:28 38.0144 -79.9617 106° East 530 610 40,000 -1,260 Level Washington Center
15:29 37.9750 -79.7778 105° East 541 623 37,500 -2,760 Descending Washington Center
15:30 37.9356 -79.5886 105° East 541 623 34,600 -2,340 Descending Washington Center
15:31 37.8936 -79.4075 106° East 541 623 33,000 -840 Descending Washington Center
15:32 37.8533 -79.2239 105° East 541 623 33,000 -1,200 Level Washington Center
15:33 37.8092 -79.0244 106° East 541 623 30,600 -2,460 Descending Washington Center
15:34 37.7664 -78.8386 106° East 541 623 28,100 -2,760 Descending Washington Center
15:35 37.7253 -78.6558 106° East 540 621 25,100 -2,580 Descending Washington Center
15:36 37.6858 -78.4811 106° East 534 615 23,000 -1,080 Descending Washington Center
15:37 37.6497 -78.3303 107° East 514 592 23,000  Level Washington Center
15:38 37.6328 -78.1617 97° East 502 578 23,000  Level Washington Center
15:39 37.6961 -78.0142 61° Northeast 458 527 23,000  Level Washington Center
15:40 37.7739 -77.8775 54° Northeast 458 527 23,000 -120 Level Washington Center
15:41 37.8700 -77.7619 43° Northeast 459 528 22,800 -360 Descending Washington Center
15:42 37.9700 -77.6436 43° Northeast 465 535 22,300 -480 Descending Washington Center
15:43 38.0658 -77.5303 43° Northeast 465 535 21,900 -600 Descending Washington Center
15:44 38.1617 -77.4114 44° Northeast 471 542 21,200 -2,040 Descending Washington Center
15:45 38.2697 -77.2789 44° Northeast 484 557 17,800 -2,880 Descending Washington Center
15:46 38.3589 -77.1672 44° Northeast 469 540 15,600 -2,220 Descending Washington Center
15:47 38.4500 -77.0550 44° Northeast 453 521 13,500 -1,980 Descending Washington Center
15:48 38.5325 -76.9586 42° Northeast 432 497 11,700 -1,440 Descending Washington Center
15:49 38.6042 -76.8694 44° Northeast 386 444 10,600 -1,080 Descending Washington Center
15:50 38.6678 -76.7881 45° Northeast 343 395 9,600 -1,320 Descending Washington Center
15:51 38.7247 -76.6986 51° Northeast 325 374 8,100 -1,380 Descending Washington Center
15:52 38.7653 -76.6033 61° Northeast 313 360 6,800 -1,020 Descending Washington Center
15:53 38.8333 -76.5500 31° Northeast 290 334 6,100 -960 Descending Potomac TRACON
15:54 38.9167 -76.5667 351° North 293 337 5,000 -540 Descending Potomac TRACON
15:55 38.9833 -76.6167 330° Northwest 284 327 5,100 -480 Climbing Potomac TRACON
15:56 39.0167 -76.7000 297° West 267 307 4,100 -600 Descending Potomac TRACON
15:57 39.0500 -76.7833 297° West 267 307 4,000 -600 Descending Potomac TRACON
15:58 39.0833 -76.8667 297° West 253 291 2,900 -1,020 Descending Potomac TRACON
15:59 39.1500 -76.8833 349° North 245 282 2,000 -480 Descending Potomac TRACON
16:00 39.1833 -76.8500 38° Northeast 189 217 2,000 -300 Level Potomac TRACON
16:01 39.1833 -76.7833 90° East 160 184 1,500 -660 Descending Potomac TRACON
16:02 39.1833 -76.7167 90° East 156 180 700 -900 Descending Potomac TRACON
16:04 39.1754 -76.6683 North  Level Estimated
16:11 39.1754 -76.6683 North  Level Estimated
16:12 39.1754 -76.6683 North  Level Estimated